createdAt,value
2022-08-01T00:00:25.522Z,4.50
2022-08-01T00:03:27.098Z,4.40
2022-08-01T00:06:28.884Z,4.20
2022-08-01T00:09:30.448Z,4.17
2022-08-01T00:12:31.996Z,4.10
2022-08-01T00:15:34.722Z,4.28
2022-08-01T00:18:39.311Z,4.50
2022-08-01T00:21:40.864Z,4.10
2022-08-01T00:24:53.763Z,4.03
2022-08-01T00:27:55.309Z,4.05
2022-08-01T00:30:56.910Z,4.30
2022-08-01T00:33:58.429Z,4.20
2022-08-01T00:36:59.992Z,4.00
2022-08-01T00:40:01.818Z,4.03
2022-08-01T00:43:03.781Z,4.07
2022-08-01T00:46:05.454Z,4.00
2022-08-01T00:49:07.151Z,3.90
2022-08-01T00:52:13.026Z,3.70
2022-08-01T00:55:15.104Z,3.67
2022-08-01T00:58:17.825Z,3.72
2022-08-01T01:01:21.677Z,3.70
2022-08-01T01:04:23.962Z,3.70
2022-08-01T01:07:35.855Z,3.80
2022-08-01T01:10:59.106Z,4.00
2022-08-01T01:14:09.908Z,3.55
2022-08-01T01:17:13.207Z,3.50
2022-08-01T01:20:17.223Z,3.60
2022-08-01T01:23:56.277Z,3.65
2022-08-01T01:27:09.771Z,3.70
2022-08-01T01:30:11.779Z,3.90
2022-08-01T01:33:15.312Z,3.60
2022-08-01T01:36:20.241Z,3.53
2022-08-01T01:39:25.318Z,3.70
2022-08-01T01:42:28.112Z,3.50
2022-08-01T01:45:30.985Z,3.65
2022-08-01T01:48:34.450Z,3.67
2022-08-01T01:51:39.582Z,3.50
2022-08-01T01:54:46.656Z,3.42
2022-08-01T01:57:49.216Z,3.47
2022-08-01T02:00:53.521Z,3.70
2022-08-01T02:03:57.793Z,3.67
2022-08-01T02:07:01.433Z,3.70
2022-08-01T02:10:05.105Z,3.50
2022-08-01T02:13:07.553Z,3.63
2022-08-01T02:16:12.144Z,3.80
2022-08-01T02:19:15.484Z,3.75
2022-08-01T02:22:31.701Z,3.70
2022-08-01T02:25:39.556Z,3.63
2022-08-01T02:29:07.492Z,3.60
2022-08-01T02:32:15.817Z,3.70
2022-08-01T02:35:31.656Z,3.78
2022-08-01T02:38:38.626Z,4.18
2022-08-01T02:41:47.245Z,3.90
2022-08-01T02:44:50.499Z,3.70
2022-08-01T02:47:54.951Z,3.60
2022-08-01T02:51:00.988Z,3.70
2022-08-01T02:54:05.377Z,3.65
2022-08-01T02:57:09.976Z,3.80
2022-08-01T03:00:17.494Z,4.10
2022-08-01T03:03:19.445Z,3.50
2022-08-01T03:06:21.884Z,3.53
2022-08-01T03:09:24.457Z,3.80
2022-08-01T03:12:30.414Z,3.40
2022-08-01T03:15:38.466Z,3.50
2022-08-01T03:18:42.309Z,3.97
2022-08-01T03:21:45.350Z,3.50
2022-08-01T03:24:51.061Z,3.80
2022-08-01T03:27:59.135Z,3.70
2022-08-01T03:31:01.422Z,3.60
2022-08-01T03:34:05.887Z,3.72
2022-08-01T03:37:22.878Z,3.90
2022-08-01T03:40:36.396Z,3.70
2022-08-01T03:43:53.447Z,3.88
2022-08-01T03:47:03.260Z,3.90
2022-08-01T03:50:12.222Z,3.90
2022-08-01T03:53:15.191Z,4.20
2022-08-01T03:56:20.661Z,4.30
2022-08-01T03:59:22.906Z,4.30
2022-08-01T04:02:24.897Z,4.20
2022-08-01T04:05:26.455Z,4.68
2022-08-01T04:08:38.841Z,4.20
2022-08-01T04:11:41.875Z,4.30
2022-08-01T04:14:43.407Z,4.20
2022-08-01T04:17:45.116Z,4.27
2022-08-01T04:20:49.663Z,4.47
2022-08-01T04:23:53.701Z,4.72
2022-08-01T04:26:55.624Z,4.60
2022-08-01T04:29:59.818Z,4.40
2022-08-01T04:33:06.099Z,4.40
2022-08-01T04:36:11.418Z,4.50
2022-08-01T04:39:14.595Z,4.70
2022-08-01T04:42:16.959Z,4.47
2022-08-01T04:45:27.340Z,4.60
2022-08-01T04:48:30.143Z,4.40
2022-08-01T04:51:31.647Z,4.35
2022-08-01T04:54:37.933Z,4.50
2022-08-01T04:57:44.593Z,4.40
2022-08-01T05:00:49.179Z,4.28
2022-08-01T05:03:50.756Z,4.67
2022-08-01T05:06:52.277Z,4.47
2022-08-01T05:09:53.799Z,4.40
2022-08-01T05:12:55.377Z,4.53
2022-08-01T05:15:57.109Z,4.38
2022-08-01T05:18:58.588Z,4.30
2022-08-01T05:22:01.730Z,4.50
2022-08-01T05:25:05.862Z,4.15
2022-08-01T05:28:07.403Z,4.20
2022-08-01T05:31:10.203Z,4.13
2022-08-01T05:34:14.920Z,4.33
2022-08-01T05:37:16.885Z,4.00
2022-08-01T05:40:18.570Z,4.10
2022-08-01T05:43:20.084Z,3.90
2022-08-01T05:46:21.597Z,3.78
2022-08-01T05:49:25.307Z,4.27
2022-08-01T05:52:26.861Z,4.10
2022-08-01T05:55:28.367Z,3.70
2022-08-01T05:58:29.932Z,3.80
2022-08-01T06:01:31.590Z,3.65
2022-08-01T06:04:33.183Z,3.80
2022-08-01T06:07:34.693Z,3.58
2022-08-01T06:10:40.225Z,3.17
2022-08-01T06:13:45.616Z,3.30
2022-08-01T06:16:50.362Z,3.17
2022-08-01T06:19:52.124Z,3.40
2022-08-01T06:22:53.793Z,3.15
2022-08-01T06:25:56.334Z,2.92
2022-08-01T06:28:57.929Z,3.40
2022-08-01T06:32:00.162Z,3.30
2022-08-01T06:35:01.753Z,3.40
2022-08-01T06:38:03.977Z,3.33
2022-08-01T06:41:05.568Z,3.35
2022-08-01T06:44:07.223Z,3.35
2022-08-01T06:47:08.861Z,3.22
2022-08-01T06:50:11.496Z,3.23
2022-08-01T06:53:13.356Z,3.25
2022-08-01T06:56:15.015Z,3.50
2022-08-01T06:59:16.642Z,3.35
2022-08-01T07:02:18.639Z,3.20
2022-08-01T07:05:21.064Z,3.40
2022-08-01T07:08:22.589Z,3.22
2022-08-01T07:11:24.833Z,3.40
2022-08-01T07:14:26.398Z,3.50
2022-08-01T07:17:28.114Z,3.38
2022-08-01T07:20:29.727Z,3.50
2022-08-01T07:23:36.623Z,3.45
2022-08-01T07:26:53.133Z,3.58
2022-08-01T07:29:56.304Z,3.42
2022-08-01T07:33:18.697Z,3.33
2022-08-01T07:36:30.856Z,3.40
2022-08-01T07:39:32.609Z,3.30
2022-08-01T07:42:34.307Z,3.45
2022-08-01T07:45:35.891Z,3.40
2022-08-01T07:48:37.427Z,3.17
2022-08-01T07:51:39.238Z,3.63
2022-08-01T07:54:40.761Z,3.10
2022-08-01T07:57:42.293Z,3.47
2022-08-01T08:00:44.049Z,2.92
2022-08-01T08:03:45.557Z,3.03
2022-08-01T08:06:48.618Z,3.47
2022-08-01T08:09:51.185Z,3.08
2022-08-01T08:12:53.023Z,3.00
2022-08-01T08:15:54.720Z,3.10
2022-08-01T08:18:56.278Z,2.92
2022-08-01T08:21:57.805Z,2.80
2022-08-01T08:25:00.689Z,3.20
2022-08-01T08:28:02.615Z,3.00
2022-08-01T08:31:04.265Z,2.83
2022-08-01T08:34:05.823Z,3.00
2022-08-01T08:37:08.332Z,2.70
2022-08-01T08:40:11.622Z,2.97
2022-08-01T08:43:13.894Z,2.83
2022-08-01T08:46:15.933Z,2.85
2022-08-01T08:49:26.685Z,2.53
2022-08-01T08:52:28.976Z,2.70
2022-08-01T08:55:30.653Z,2.30
2022-08-01T08:58:38.368Z,2.70
2022-08-01T09:01:40.151Z,2.22
2022-08-01T09:04:42.476Z,2.13
2022-08-01T09:07:43.984Z,2.30
2022-08-01T09:10:45.524Z,2.38
2022-08-01T09:14:04.198Z,2.30
2022-08-01T09:17:12.008Z,2.15
2022-08-01T09:20:24.424Z,2.30
2022-08-01T09:23:40.601Z,2.20
2022-08-01T09:26:56.924Z,2.28
2022-08-01T09:30:10.227Z,2.15
2022-08-01T09:33:21.646Z,2.20
2022-08-01T09:36:26.688Z,2.00
2022-08-01T09:39:29.349Z,2.17
2022-08-01T09:42:30.913Z,1.95
2022-08-01T09:45:41.127Z,1.80
2022-08-01T09:48:59.911Z,1.83
2022-08-01T09:52:16.851Z,1.90
2022-08-01T09:55:22.393Z,1.90
2022-08-01T09:58:23.949Z,1.80
2022-08-01T10:01:25.883Z,1.90
2022-08-01T10:04:28.502Z,1.80
2022-08-01T10:07:43.978Z,2.10
2022-08-01T10:11:22.325Z,1.90
2022-08-01T10:14:39.352Z,1.90
2022-08-01T10:17:51.653Z,1.90
2022-08-01T10:20:56.360Z,1.90
2022-08-01T10:24:02.913Z,1.90
2022-08-01T10:27:09.577Z,1.90
2022-08-01T10:30:23.122Z,2.00
2022-08-01T10:33:51.092Z,1.95
2022-08-01T10:36:47.790Z,1.90
2022-08-01T10:40:14.109Z,1.83
2022-08-01T10:43:21.563Z,1.80
2022-08-01T10:46:24.051Z,1.80
2022-08-01T10:49:30.107Z,1.90
2022-08-01T10:52:34.430Z,1.70
2022-08-01T10:55:51.265Z,1.70
2022-08-01T10:59:06.406Z,1.50
2022-08-01T11:02:26.660Z,1.65
2022-08-01T11:05:36.218Z,1.90
2022-08-01T11:08:38.990Z,1.80
2022-08-01T11:11:59.198Z,1.75
2022-08-01T11:15:03.392Z,1.70
2022-08-01T11:18:30.777Z,1.70
2022-08-01T11:21:57.224Z,1.70
2022-08-01T11:25:02.233Z,1.50
2022-08-01T11:28:28.453Z,1.60
2022-08-01T11:31:37.926Z,1.40
2022-08-01T11:34:59.949Z,1.60
2022-08-01T11:38:24.693Z,1.80
2022-08-01T11:41:38.547Z,1.70
2022-08-01T11:44:59.103Z,2.30
2022-08-01T11:48:00.689Z,2.00
2022-08-01T11:51:03.565Z,1.90
2022-08-01T11:54:05.495Z,2.15
2022-08-01T11:57:40.607Z,1.95
2022-08-01T12:00:43.959Z,2.10
2022-08-01T12:03:56.669Z,2.10
2022-08-01T12:07:12.973Z,1.90
2022-08-01T12:10:20.482Z,1.90
2022-08-01T12:13:22.474Z,2.10
2022-08-01T12:16:24.067Z,2.20
2022-08-01T12:19:37.441Z,2.10
2022-08-01T12:22:39.048Z,2.10
2022-08-01T12:25:48.238Z,2.10
2022-08-01T12:28:49.751Z,2.20
2022-08-01T12:31:52.603Z,2.10
2022-08-01T12:34:55.464Z,2.00
2022-08-01T12:37:59.594Z,2.13
2022-08-01T12:41:01.429Z,2.25
2022-08-01T12:44:02.965Z,2.17
2022-08-01T12:47:08.846Z,2.00
2022-08-01T12:50:23.222Z,1.97
2022-08-01T12:53:25.580Z,2.10
2022-08-01T12:56:35.110Z,2.28
2022-08-01T12:59:36.619Z,2.15
2022-08-01T13:02:39.783Z,2.28
2022-08-01T13:05:57.518Z,2.00
2022-08-01T13:09:06.612Z,1.92
2022-08-01T13:12:12.455Z,2.08
2022-08-01T13:15:17.945Z,2.10
2022-08-01T13:18:28.156Z,1.90
2022-08-01T13:21:34.612Z,1.90
2022-08-01T13:24:52.263Z,2.05
2022-08-01T13:28:17.823Z,2.15
2022-08-01T13:31:19.378Z,2.13
2022-08-01T13:34:31.709Z,2.00
2022-08-01T13:37:33.581Z,2.27
2022-08-01T13:40:35.259Z,2.00
2022-08-01T13:43:58.783Z,2.15
2022-08-01T13:46:58.427Z,2.00
2022-08-01T13:50:03.337Z,2.30
2022-08-01T13:53:05.231Z,2.47
2022-08-01T13:56:06.885Z,2.72
2022-08-01T13:59:09.004Z,2.92
2022-08-01T14:02:10.693Z,2.95
2022-08-01T14:05:12.450Z,2.85
2022-08-01T14:08:14.096Z,2.90
2022-08-01T14:11:16.151Z,3.10
2022-08-01T14:14:17.742Z,2.92
2022-08-01T14:17:19.302Z,2.53
2022-08-01T14:20:20.907Z,2.10
2022-08-01T14:23:22.644Z,2.27
2022-08-01T14:26:24.315Z,1.88
2022-08-01T14:29:25.956Z,2.22
2022-08-01T14:32:47.520Z,2.40
2022-08-01T14:36:05.151Z,2.58
2022-08-01T14:39:08.061Z,2.57
2022-08-01T14:42:16.421Z,2.35
2022-08-01T14:45:18.121Z,2.78
2022-08-01T14:48:19.737Z,2.90
2022-08-01T14:51:21.276Z,2.55
2022-08-01T14:54:29.404Z,1.97
2022-08-01T14:57:31.672Z,2.20
2022-08-01T15:00:33.227Z,2.25
2022-08-01T15:03:34.831Z,1.95
2022-08-01T15:06:36.426Z,2.00
2022-08-01T15:09:38.356Z,2.10
2022-08-01T15:12:50.211Z,1.80
2022-08-01T15:15:52.255Z,1.70
2022-08-01T15:18:53.793Z,1.75
2022-08-01T15:21:55.337Z,1.65
2022-08-01T15:24:58.332Z,1.53
2022-08-01T15:27:59.886Z,2.00
2022-08-01T15:31:01.552Z,1.90
2022-08-01T15:34:03.084Z,1.90
2022-08-01T15:37:07.074Z,1.73
2022-08-01T15:40:09.276Z,2.00
2022-08-01T15:43:15.748Z,2.00
2022-08-01T15:46:17.595Z,1.80
2022-08-01T15:49:19.734Z,1.70
2022-08-01T15:52:23.033Z,1.80
2022-08-01T15:55:24.883Z,1.93
2022-08-01T15:58:26.446Z,1.77
2022-08-01T16:01:28.266Z,1.55
2022-08-01T16:04:30.409Z,1.80
2022-08-01T16:07:32.274Z,1.80
2022-08-01T16:10:33.811Z,1.73
2022-08-01T16:13:36.423Z,1.55
2022-08-01T16:16:37.992Z,1.67
2022-08-01T16:19:40.788Z,1.50
2022-08-01T16:22:42.433Z,1.42
2022-08-01T16:25:46.233Z,1.50
2022-08-01T16:28:48.421Z,1.33
2022-08-01T16:32:09.967Z,1.48
2022-08-01T16:35:11.596Z,1.35
2022-08-01T16:38:16.838Z,1.20
2022-08-01T16:41:19.351Z,1.30
2022-08-01T16:44:33.963Z,1.27
2022-08-01T16:47:36.051Z,1.38
2022-08-01T16:50:37.973Z,1.50
2022-08-01T16:53:39.554Z,1.40
2022-08-01T16:56:41.168Z,1.40
2022-08-01T16:59:42.759Z,1.30
2022-08-01T17:02:45.745Z,1.40
2022-08-01T17:05:47.446Z,1.50
2022-08-01T17:08:49.900Z,1.50
2022-08-01T17:11:51.942Z,1.37
2022-08-01T17:14:53.807Z,1.60
2022-08-01T17:17:56.056Z,1.40
2022-08-01T17:20:57.608Z,1.55
2022-08-01T17:23:59.181Z,1.70
2022-08-01T17:27:00.678Z,1.60
2022-08-01T17:30:02.255Z,1.95
2022-08-01T17:33:04.652Z,2.83
2022-08-01T17:36:06.957Z,2.50
2022-08-01T17:39:09.374Z,3.20
2022-08-01T17:42:11.113Z,3.17
2022-08-01T17:45:27.527Z,3.10
2022-08-01T17:48:29.965Z,3.20
2022-08-01T17:51:32.617Z,3.60
2022-08-01T17:54:34.141Z,3.38
2022-08-01T17:57:36.184Z,2.73
2022-08-01T18:00:39.341Z,2.25
2022-08-01T18:03:41.830Z,2.40
2022-08-01T18:06:58.872Z,2.20
2022-08-01T18:10:01.015Z,1.63
2022-08-01T18:13:03.688Z,1.50
2022-08-01T18:16:07.137Z,1.80
2022-08-01T18:19:08.755Z,2.00
2022-08-01T18:22:15.601Z,1.67
2022-08-01T18:25:33.501Z,2.20
2022-08-01T18:28:42.043Z,1.80
2022-08-01T18:31:48.347Z,2.08
2022-08-01T18:34:49.842Z,1.95
2022-08-01T18:37:55.343Z,2.00
2022-08-01T18:40:57.150Z,1.85
2022-08-01T18:44:05.495Z,2.03
2022-08-01T18:47:10.172Z,2.42
2022-08-01T18:50:11.853Z,2.75
2022-08-01T18:53:13.494Z,2.85
2022-08-01T18:56:15.066Z,2.95
2022-08-01T18:59:17.060Z,2.90
2022-08-01T19:02:18.589Z,2.65
2022-08-01T19:05:20.135Z,2.60
2022-08-01T19:08:22.005Z,2.72
2022-08-01T19:11:23.852Z,3.10
2022-08-01T19:14:25.473Z,3.10
2022-08-01T19:17:27.048Z,3.40
2022-08-01T19:20:28.949Z,3.10
2022-08-01T19:23:49.180Z,3.10
2022-08-01T19:26:56.740Z,3.20
2022-08-01T19:30:01.857Z,3.10
2022-08-01T19:33:03.753Z,3.00
2022-08-01T19:36:08.021Z,3.08
2022-08-01T19:39:10.151Z,3.20
2022-08-01T19:42:12.943Z,3.20
2022-08-01T19:45:14.754Z,2.83
2022-08-01T19:48:17.685Z,2.60
2022-08-01T19:51:21.853Z,2.95
2022-08-01T19:54:29.486Z,2.88
2022-08-01T19:57:35.876Z,2.80
2022-08-01T20:00:48.928Z,2.60
2022-08-01T20:03:51.112Z,2.80
2022-08-01T20:06:53.434Z,2.78
2022-08-01T20:09:55.608Z,2.72
2022-08-01T20:12:57.767Z,3.20
2022-08-01T20:16:00.256Z,2.73
2022-08-01T20:19:01.879Z,2.70
2022-08-01T20:22:07.291Z,3.00
2022-08-01T20:25:10.839Z,2.90
2022-08-01T20:28:13.249Z,2.78
2022-08-01T20:31:16.602Z,2.80
2022-08-01T20:34:21.730Z,2.78
2022-08-01T20:38:01.260Z,2.38
2022-08-01T20:40:49.761Z,2.17
2022-08-01T20:43:56.809Z,2.45
2022-08-01T20:46:59.244Z,2.93
2022-08-01T20:50:50.708Z,3.08
2022-08-01T20:53:52.819Z,2.50
2022-08-01T20:57:00.126Z,2.50
2022-08-01T21:00:06.089Z,2.90
2022-08-01T21:03:41.374Z,3.10
2022-08-01T21:06:50.289Z,3.40
2022-08-01T21:10:04.803Z,3.40
2022-08-01T21:13:21.362Z,3.65
2022-08-01T21:16:30.215Z,3.00
2022-08-01T21:19:34.549Z,3.03
2022-08-01T21:22:57.437Z,2.88
2022-08-01T21:25:59.735Z,3.00
2022-08-01T21:29:06.209Z,3.20
2022-08-01T21:32:12.629Z,3.15
2022-08-01T21:35:16.290Z,2.90
2022-08-01T21:38:20.066Z,2.72
2022-08-01T21:42:05.075Z,3.20
2022-08-01T21:44:46.270Z,2.10
2022-08-01T21:47:49.970Z,2.22
2022-08-01T21:50:58.319Z,1.80
2022-08-01T21:54:07.229Z,1.83
2022-08-01T21:57:24.300Z,1.90
2022-08-01T22:00:26.454Z,1.80
2022-08-01T22:03:35.744Z,1.90
2022-08-01T22:06:41.175Z,1.90
2022-08-01T22:09:49.667Z,1.80
2022-08-01T22:12:52.517Z,1.60
2022-08-01T22:15:57.002Z,1.67
2022-08-01T22:19:02.042Z,1.70
2022-08-01T22:22:03.857Z,1.70
2022-08-01T22:25:25.593Z,1.73
2022-08-01T22:28:28.743Z,2.00
2022-08-01T22:31:33.004Z,1.88
2022-08-01T22:34:37.918Z,2.10
2022-08-01T22:37:57.237Z,1.87
2022-08-01T22:41:05.430Z,2.15
2022-08-01T22:44:14.107Z,1.90
2022-08-01T22:47:59.873Z,1.90
2022-08-01T22:51:23.672Z,1.83
2022-08-01T22:54:40.911Z,2.10
2022-08-01T22:57:58.475Z,2.10
2022-08-01T23:01:02.493Z,2.00
2022-08-01T23:04:05.796Z,2.20
2022-08-01T23:07:09.062Z,2.50
2022-08-01T23:10:10.863Z,2.30
2022-08-01T23:13:15.830Z,2.03
2022-08-01T23:16:18.130Z,1.95
2022-08-01T23:19:21.065Z,2.00
2022-08-01T23:22:26.155Z,2.05
2022-08-01T23:25:29.302Z,1.90
2022-08-01T23:28:31.814Z,2.55
2022-08-01T23:32:02.622Z,2.10
2022-08-01T23:34:55.107Z,1.83
2022-08-01T23:38:01.789Z,1.92
2022-08-01T23:41:14.783Z,2.00
2022-08-01T23:44:16.512Z,1.80
2022-08-01T23:47:18.191Z,1.80
2022-08-01T23:50:21.749Z,1.90
2022-08-01T23:53:23.886Z,1.50
2022-08-01T23:56:32.544Z,1.57
2022-08-01T23:59:52.859Z,1.70
